Time;durP1;ratioP1;P1;durP2;ratioP2;P2;SDS_P1;SDS_P2;PMS_P1;PMS_P2;Temp;Humidity;BMP_temperature;BMP_pressure;BME280_temperature;BME280_humidity;BME280_pressure;Samples;Min_cycle;Max_cycle;Signal;HPM_P1;HPM_P2
2021/12/24 00:01:08;;;;;;;42.78;26.27;;;;;;;-144.19;100.00;76526.06;5064607;28;20508;-88
2021/12/24 00:03:36;;;;;;;42.90;24.80;;;;;;;-144.19;100.00;76522.13;5095737;28;20497;-88
2021/12/24 00:06:05;;;;;;;43.05;24.65;;;;;;;-144.19;100.00;76512.28;5073930;28;20082;-88
2021/12/24 00:08:32;;;;;;;47.10;26.67;;;;;;;-144.19;100.00;76508.34;5071226;28;20048;-88
2021/12/24 00:11:00;;;;;;;;;;;;;;;-144.19;100.00;76508.34;5075088;28;20058;-89
2021/12/24 00:13:33;;;;;;;42.03;24.77;;;;;;;-144.19;100.00;76502.44;5074166;28;20366;-88
2021/12/24 00:18:45;;;;;;;43.63;26.40;;;;;;;-144.19;100.00;76490.66;5112751;28;20047;-89
2021/12/24 00:37:35;;;;;;;47.97;26.67;;;;;;;-144.19;100.00;76455.22;5099792;28;20501;-88
2021/12/24 00:40:13;;;;;;;66.22;34.40;;;;;;;-144.19;100.00;76457.19;5076783;28;20046;-88
2021/12/24 00:42:44;;;;;;;49.08;26.60;;;;;;;-144.19;100.00;76447.34;5075606;28;20048;-89
2021/12/24 00:45:17;;;;;;;47.22;25.80;;;;;;;-144.19;100.00;76457.19;5073158;28;20062;-88
2021/12/24 00:47:45;;;;;;;46.47;25.20;;;;;;;-144.19;100.00;76437.50;5073500;28;20048;-88
2021/12/24 00:50:16;;;;;;;47.47;25.83;;;;;;;-144.19;100.00;76429.63;5073129;28;20522;-89
2021/12/24 00:52:49;;;;;;;51.28;26.30;;;;;;;-144.19;100.00;76421.75;5073610;28;20067;-88
2021/12/24 00:55:18;;;;;;;53.78;28.45;;;;;;;-144.19;100.00;76415.84;5080097;28;20414;-88
2021/12/24 00:57:47;;;;;;;60.35;29.05;;;;;;;-144.19;100.00;76413.88;5109715;28;20059;-88
2021/12/24 01:00:20;;;;;;;60.20;31.05;;;;;;;-144.19;100.00;76413.88;5091376;28;20059;-88
2021/12/24 01:02:48;;;;;;;64.65;31.00;;;;;;;-144.19;100.00;76407.97;5073829;28;20044;-88
2021/12/24 01:05:17;;;;;;;61.33;30.55;;;;;;;-144.19;100.00;76409.94;5073655;28;20048;-89
2021/12/24 01:07:45;;;;;;;58.55;32.75;;;;;;;-144.19;100.00;76411.91;5073361;28;20048;-88
2021/12/24 01:10:14;;;;;;;59.83;30.35;;;;;;;-144.19;100.00;76409.94;5091162;28;20464;-88
2021/12/24 01:12:41;;;;;;;62.83;33.00;;;;;;;-144.19;100.00;76409.94;5091842;28;20048;-89
2021/12/24 01:15:09;;;;;;;55.97;29.92;;;;;;;-144.19;100.00;76402.06;5073633;28;20494;-88
2021/12/24 01:17:49;;;;;;;65.35;31.42;;;;;;;-144.19;100.00;76402.06;5073173;28;20059;-88
2021/12/24 01:25:56;;;;;;;64.25;30.38;;;;;;;-144.19;100.00;76382.38;5091373;28;20438;-89
2021/12/24 01:39:42;;;;;;;53.55;31.63;;;;;;;-144.19;100.00;76358.75;5090950;28;20048;-89
2021/12/24 01:44:54;;;;;;;62.15;31.63;;;;;;;-144.19;100.00;76350.88;5091052;28;20060;-88
2021/12/24 01:47:21;;;;;;;60.35;32.40;;;;;;;-144.19;100.00;76344.97;5072779;28;20128;-88
2021/12/24 01:49:48;;;;;;;65.03;33.57;;;;;;;-144.19;100.00;76341.06;5063248;28;20057;-89
2021/12/24 01:52:15;;;;;;;64.47;32.35;;;;;;;-144.19;100.00;76343.03;5079329;22;20306;-86
2021/12/24 01:54:43;;;;;;;64.07;34.63;;;;;;;-144.19;100.00;76331.22;5093689;28;20048;-86
2021/12/24 01:57:14;;;;;;;64.75;32.65;;;;;;;-144.19;100.00;76327.28;5074141;28;20055;-87
2021/12/24 01:59:41;;;;;;;68.40;35.28;;;;;;;-144.19;100.00;76319.41;5076860;28;20048;-86
2021/12/24 02:02:08;;;;;;;69.55;34.67;;;;;;;-144.19;100.00;76307.59;5097510;28;20056;-87
2021/12/24 02:04:35;;;;;;;;;;;;;;;-144.19;100.00;76313.50;5079152;28;20052;-84
2021/12/24 02:07:02;;;;;;;64.35;32.55;;;;;;;-144.19;100.00;76301.69;5066450;28;20306;-86
2021/12/24 02:09:29;;;;;;;67.75;34.80;;;;;;;-144.19;100.00;76299.72;5039123;28;20060;-88
2021/12/24 02:11:56;;;;;;;61.90;33.55;;;;;;;-144.19;100.00;76283.97;5038430;28;20048;-89
2021/12/24 02:14:30;;;;;;;60.83;32.92;;;;;;;-144.19;100.00;76283.97;5039349;28;20045;-88
2021/12/24 02:28:21;;;;;;;58.15;31.10;;;;;;;-144.19;100.00;76258.38;5055043;28;20513;-85
2021/12/24 02:30:48;;;;;;;56.47;30.65;;;;;;;-144.19;100.00;76248.53;5055159;28;20053;-87
2021/12/24 02:33:14;;;;;;;58.80;31.85;;;;;;;-144.19;100.00;76254.44;5037046;28;20051;-89
2021/12/24 02:35:41;;;;;;;57.17;31.55;;;;;;;-144.19;100.00;76248.53;5055215;28;20055;-87
2021/12/24 02:38:08;;;;;;;52.73;28.07;;;;;;;-144.19;100.00;76234.75;5074597;28;20425;-85
2021/12/24 02:40:34;;;;;;;47.80;28.90;;;;;;;-144.19;100.00;76236.72;5048155;28;20056;-88
2021/12/24 02:43:02;;;;;;;46.40;28.52;;;;;;;-144.19;100.00;76232.78;5036764;28;20053;-87
2021/12/24 02:45:34;;;;;;;49.45;26.85;;;;;;;-144.19;100.00;76228.84;5054672;28;20053;-87
2021/12/24 02:56:06;;;;;;;40.10;23.77;;;;;;;-144.19;100.00;76205.25;5080991;28;20048;-88
2021/12/24 02:58:45;;;;;;;46.03;25.73;;;;;;;-144.19;100.00;76205.25;5043594;28;20059;-86
2021/12/24 03:01:15;;;;;;;41.85;25.85;;;;;;;-144.19;100.00;76193.44;5054488;28;20061;-87
2021/12/24 03:03:48;;;;;;;37.28;22.23;;;;;;;-144.19;100.00;76185.56;5036912;28;20114;-86
2021/12/24 03:06:19;;;;;;;41.38;24.95;;;;;;;-144.19;100.00;76185.56;5059077;28;20135;-87
2021/12/24 03:08:46;;;;;;;39.75;23.42;;;;;;;-144.19;100.00;76181.63;5075590;28;20502;-89
2021/12/24 03:11:13;;;;;;;;;;;;;;;-144.19;100.00;76179.66;5073836;28;20059;-86
2021/12/24 03:13:40;;;;;;;36.72;21.98;;;;;;;-144.19;100.00;76173.75;5073613;28;19927;-86
2021/12/24 03:16:07;;;;;;;38.50;23.73;;;;;;;-144.19;100.00;76156.03;5055785;28;20055;-86
2021/12/24 03:18:37;;;;;;;36.35;23.75;;;;;;;-144.19;100.00;76158.00;5038015;28;20112;-85
2021/12/24 03:21:13;;;;;;;40.17;23.88;;;;;;;-144.19;100.00;76158.00;5036443;28;20049;-86
2021/12/24 03:24:33;;;;;;;37.67;23.42;;;;;;;-144.19;100.00;76154.06;5036591;28;20055;-87
2021/12/24 03:26:28;;;;;;;39.25;24.80;;;;;;;-144.19;100.00;76144.22;5053522;28;20324;-86
2021/12/24 03:28:55;;;;;;;44.35;26.73;;;;;;;-144.19;100.00;76148.16;5055373;28;20321;-86
2021/12/24 03:31:22;;;;;;;46.20;28.45;;;;;;;-144.19;100.00;76150.13;5054364;28;20049;-87
2021/12/24 03:33:53;;;;;;;41.17;26.50;;;;;;;-144.19;100.00;76142.25;5053286;28;20045;-87
2021/12/24 03:36:23;;;;;;;46.47;27.52;;;;;;;-144.19;100.00;76134.38;5052099;28;20040;-90
2021/12/24 03:38:50;;;;;;;43.83;26.17;;;;;;;-144.19;100.00;76130.44;5073200;28;20060;-86
2021/12/24 03:41:16;;;;;;;43.88;27.33;;;;;;;-144.19;100.00;76132.41;5073480;28;20519;-87
2021/12/24 03:43:43;;;;;;;48.43;28.10;;;;;;;-144.19;100.00;76120.59;5072901;28;20056;-88
2021/12/24 03:46:14;;;;;;;49.75;28.13;;;;;;;-144.19;100.00;76118.63;5055350;28;20044;-86
2021/12/24 03:48:49;;;;;;;51.90;29.88;;;;;;;-144.19;100.00;76114.69;5046001;28;20060;-88
2021/12/24 03:56:39;;;;;;;46.42;26.73;;;;;;;-144.19;100.00;76106.81;5090284;28;20089;-85
2021/12/24 03:59:06;;;;;;;46.35;26.65;;;;;;;-144.19;100.00;76114.69;5076602;28;20047;-84
2021/12/24 04:01:34;;;;;;;45.70;25.00;;;;;;;-144.19;100.00;76106.81;5076241;28;20052;-85
2021/12/24 04:04:02;;;;;;;43.13;24.98;;;;;;;-144.19;100.00;76106.81;5094789;28;20486;-89
2021/12/24 04:06:28;;;;;;;40.53;25.10;;;;;;;-144.19;100.00;76098.97;5077854;28;20059;-87
2021/12/24 04:08:55;;;;;;;41.97;25.07;;;;;;;-144.19;100.00;76098.97;5074184;28;20052;-86
2021/12/24 04:11:21;;;;;;;40.28;23.80;;;;;;;-144.19;100.00;76095.03;5077751;28;20055;-87
2021/12/24 04:13:48;;;;;;;38.37;22.80;;;;;;;-144.19;100.00;76091.09;5076218;28;20052;-85
2021/12/24 04:16:14;;;;;;;41.67;24.60;;;;;;;-144.19;100.00;76087.16;5072211;28;20060;-86
2021/12/24 04:26:52;;;;;;;37.70;22.73;;;;;;;-144.19;100.00;76087.16;5052581;28;20422;-88
2021/12/24 04:29:18;;;;;;;39.83;23.10;;;;;;;-144.19;100.00;76091.09;5053227;28;20059;-84
2021/12/24 04:31:54;;;;;;;42.97;24.38;;;;;;;-144.19;100.00;76075.34;5052630;28;20049;-87
2021/12/24 04:34:27;;;;;;;41.60;23.00;;;;;;;-144.19;100.00;76075.34;5054526;28;20045;-88
2021/12/24 04:39:49;;;;;;;41.58;24.52;;;;;;;-144.19;100.00;76067.47;5064565;28;20139;-87
2021/12/24 05:01:12;;;;;;;36.65;22.20;;;;;;;-144.19;100.00;76059.59;5051846;28;20051;-87
2021/12/24 05:01:48;;;;;;;29.15;18.30;;;;;;;-144.19;100.00;76055.66;5050741;28;20056;-87
2021/12/24 05:04:24;;;;;;;27.70;18.33;;;;;;;-144.19;100.00;76053.69;5051673;28;20076;-89
2021/12/24 05:06:56;;;;;;;30.52;19.23;;;;;;;-144.19;100.00;76059.59;5065632;28;20490;-87
2021/12/24 05:09:25;;;;;;;29.75;18.60;;;;;;;-144.19;100.00;76059.59;5070171;28;20053;-90
2021/12/24 05:11:51;;;;;;;32.20;19.23;;;;;;;-144.19;100.00;76051.72;5071585;28;20054;-86
2021/12/24 05:14:18;;;;;;;27.77;18.07;;;;;;;-144.19;100.00;76047.78;5058487;28;20052;-86
2021/12/24 05:16:50;;;;;;;28.13;19.50;;;;;;;-144.19;100.00;76047.78;5071135;28;20430;-89
2021/12/24 05:21:44;;;;;;;28.77;17.83;;;;;;;-144.19;100.00;76037.94;5072015;28;20052;-88
2021/12/24 05:24:16;;;;;;;28.30;18.10;;;;;;;-144.19;100.00;76032.03;5070692;28;20057;-88
2021/12/24 05:26:49;;;;;;;25.95;17.27;;;;;;;-144.19;100.00;76043.84;5070841;28;20303;-86
2021/12/24 05:29:16;;;;;;;30.75;19.75;;;;;;;-144.19;100.00;76037.94;5053363;28;20063;-85
2021/12/24 05:31:44;;;;;;;29.33;18.45;;;;;;;-144.19;100.00;76035.97;5051982;28;20081;-86
2021/12/24 05:34:14;;;;;;;27.02;16.83;;;;;;;-144.19;100.00;76039.91;5049843;28;20044;-87
2021/12/24 05:36:41;;;;;;;28.25;17.83;;;;;;;-144.19;100.00;76039.91;5075767;28;20045;-87
2021/12/24 05:39:08;;;;;;;27.30;18.58;;;;;;;-144.19;100.00;76032.03;5057183;28;20056;-87
2021/12/24 05:41:34;;;;;;;;;;;;;;;-144.19;100.00;76016.28;5057443;28;20045;-87
2021/12/24 05:44:03;;;;;;;25.42;16.65;;;;;;;-144.19;100.00;76020.22;5056743;28;19927;-87
2021/12/24 05:46:30;;;;;;;26.50;18.65;;;;;;;-144.19;100.00;76016.28;5064197;28;20075;-84
2021/12/24 05:48:57;;;;;;;22.33;14.77;;;;;;;-144.19;100.00;76004.47;5057982;28;20403;-86
2021/12/24 05:51:23;;;;;;;24.53;14.70;;;;;;;-144.19;100.00;75996.63;5075862;28;20517;-87
2021/12/24 05:53:49;;;;;;;22.53;14.33;;;;;;;-144.19;100.00;76004.47;5076108;28;20044;-86
2021/12/24 05:56:16;;;;;;;24.30;15.47;;;;;;;-144.19;100.00;76006.44;5075378;28;20561;-88
2021/12/24 05:58:42;;;;;;;21.75;13.82;;;;;;;-144.19;100.00;76002.50;5094890;28;20055;-84
2021/12/24 06:01:10;;;;;;;25.37;16.67;;;;;;;-144.19;100.00;75992.69;5076603;28;20060;-85
2021/12/24 06:03:37;;;;;;;26.50;16.75;;;;;;;-144.19;100.00;75990.72;5075301;28;20044;-85
2021/12/24 06:06:03;;;;;;;25.23;15.45;;;;;;;-144.19;100.00;75992.69;5065216;28;20052;-87
2021/12/24 06:08:29;;;;;;;24.73;16.13;;;;;;;-144.19;100.00;75996.63;5072756;28;20502;-87
2021/12/24 06:10:56;;;;;;;29.58;15.95;;;;;;;-144.19;100.00;75984.81;5072711;28;20067;-86
2021/12/24 06:13:27;;;;;;;25.23;15.43;;;;;;;-144.19;100.00;75992.69;5072856;28;20060;-86
2021/12/24 06:15:54;;;;;;;24.23;14.15;;;;;;;-144.19;100.00;76000.53;5071784;28;20055;-87
2021/12/24 06:18:28;;;;;;;25.27;16.33;;;;;;;-144.19;100.00;76004.47;5073077;28;20514;-88
2021/12/24 06:20:57;;;;;;;29.08;18.00;;;;;;;-144.19;100.00;76002.50;5069614;28;20391;-87
2021/12/24 06:23:27;;;;;;;29.77;17.15;;;;;;;-144.19;100.00;76004.47;5035811;28;20551;-87
2021/12/24 06:25:55;;;;;;;29.75;18.08;;;;;;;-144.19;100.00;76004.47;5035529;28;20055;-86
2021/12/24 06:28:22;;;;;;;34.45;19.90;;;;;;;-144.19;100.00;76016.28;5053503;28;20522;-87
2021/12/24 06:30:49;;;;;;;31.90;18.65;;;;;;;-144.19;100.00;76012.34;5036048;28;20071;-87
2021/12/24 06:33:16;;;;;;;30.63;20.17;;;;;;;-144.19;100.00;76016.28;5035586;28;20427;-87
2021/12/24 06:35:43;;;;;;;31.52;19.55;;;;;;;-144.19;100.00;76020.22;5048311;28;20045;-87
2021/12/24 06:38:10;;;;;;;33.13;19.55;;;;;;;-144.19;100.00;76000.53;5067694;28;20049;-85
2021/12/24 06:40:37;;;;;;;31.42;20.08;;;;;;;-144.19;100.00;76004.47;5035445;28;20049;-85
2021/12/24 06:43:04;;;;;;;31.00;18.45;;;;;;;-144.19;100.00;76016.28;5034940;28;20059;-87
2021/12/24 06:45:32;;;;;;;35.65;20.42;;;;;;;-144.19;100.00;76008.41;5034435;28;20041;-84
2021/12/24 06:48:00;;;;;;;30.50;19.45;;;;;;;-144.19;100.00;76008.41;5034632;28;20140;-86
2021/12/24 06:50:28;;;;;;;37.65;19.45;;;;;;;-144.19;100.00;76010.38;5052854;28;20057;-85
2021/12/24 06:52:54;;;;;;;33.78;19.67;;;;;;;-144.19;100.00;76012.34;5034561;28;20399;-86
2021/12/24 06:55:23;;;;;;;34.38;19.00;;;;;;;-144.19;100.00;76012.34;5036826;28;20060;-86
2021/12/24 06:57:49;;;;;;;34.75;20.40;;;;;;;-144.19;100.00;76002.50;5034278;28;20061;-87
2021/12/24 07:00:20;;;;;;;31.23;19.38;;;;;;;-144.19;100.00;76008.41;5034823;28;20049;-86
2021/12/24 07:02:48;;;;;;;31.17;18.85;;;;;;;-144.19;100.00;76008.41;5052235;28;20414;-84
2021/12/24 07:05:16;;;;;;;30.77;17.95;;;;;;;-144.19;100.00;76008.41;5040661;28;20051;-85
2021/12/24 07:07:43;;;;;;;29.80;18.08;;;;;;;-144.19;100.00;75996.63;5072290;28;20059;-84
2021/12/24 07:10:10;;;;;;;28.77;16.75;;;;;;;-144.19;100.00;75998.59;5072432;28;20057;-88
2021/12/24 07:12:37;;;;;;;30.27;19.75;;;;;;;-144.19;100.00;76000.53;5056963;28;20461;-84
2021/12/24 07:15:04;;;;;;;35.78;17.35;;;;;;;-144.19;100.00;76004.47;5034211;28;20052;-83
2021/12/24 07:17:30;;;;;;;32.53;19.38;;;;;;;-144.19;100.00;75998.59;5034087;28;20085;-82
2021/12/24 07:19:57;;;;;;;30.97;19.13;;;;;;;-144.19;100.00;76000.53;5052147;28;20055;-85
2021/12/24 07:22:23;;;;;;;38.67;20.20;;;;;;;-144.19;100.00;75998.59;5051968;28;20053;-84
2021/12/24 07:24:51;;;;;;;35.53;21.37;;;;;;;-144.19;100.00;76000.53;5034134;28;20049;-86
2021/12/24 07:27:19;;;;;;;29.52;18.85;;;;;;;-144.19;100.00;76002.50;5034116;28;20439;-85
2021/12/24 07:29:45;;;;;;;31.63;19.73;;;;;;;-144.19;100.00;76008.41;5034093;28;20059;-85
2021/12/24 07:32:12;;;;;;;35.23;20.47;;;;;;;-144.19;100.00;76000.53;5034392;28;20052;-85
2021/12/24 07:34:38;;;;;;;33.33;20.00;;;;;;;-144.19;100.00;76000.53;5056485;28;20282;-83
2021/12/24 07:37:05;;;;;;;30.85;19.75;;;;;;;-144.19;100.00;75990.72;5053400;28;20101;-87
2021/12/24 07:39:31;;;;;;;40.43;22.80;;;;;;;-144.19;100.00;75996.63;5054261;28;20048;-85
2021/12/24 07:41:58;;;;;;;38.03;25.83;;;;;;;-144.19;100.00;75998.59;5053764;28;20052;-85
2021/12/24 07:44:24;;;;;;;44.17;29.17;;;;;;;-144.19;100.00;76004.47;5071309;28;20044;-84
2021/12/24 07:46:56;;;;;;;34.00;20.83;;;;;;;-144.19;100.00;76008.41;5060393;28;20140;-85
2021/12/24 07:52:08;;;;;;;36.17;21.77;;;;;;;-144.19;100.00;76020.22;5050936;28;20052;-85
2021/12/24 07:54:41;;;;;;;36.70;19.95;;;;;;;-144.19;100.00;76032.03;5075859;22;20055;-89
2021/12/24 07:57:10;;;;;;;31.35;19.45;;;;;;;-144.19;100.00;76032.03;5071612;28;20052;-89
2021/12/24 07:59:39;;;;;;;35.78;20.75;;;;;;;-144.19;100.00;76020.22;5073340;28;20055;-87
2021/12/24 08:02:18;;;;;;;38.90;19.85;;;;;;;-144.19;100.00;76037.94;5072798;28;20509;-87
2021/12/24 08:04:46;;;;;;;36.90;19.88;;;;;;;-144.19;100.00;76037.94;5057380;28;20052;-87
2021/12/24 08:07:14;;;;;;;38.42;22.20;;;;;;;-144.19;100.00;76035.97;5088966;28;20054;-87
2021/12/24 08:09:42;;;;;;;33.65;19.88;;;;;;;-144.19;100.00;76030.06;5092594;28;20058;-88
2021/12/24 08:12:09;;;;;;;;;;;;;;;-144.19;100.00;76028.09;5098006;28;20498;-87
2021/12/24 08:14:36;;;;;;;28.63;17.55;;;;;;;-144.19;100.00;76049.75;5074432;28;19927;-87
2021/12/24 08:17:04;;;;;;;28.17;17.55;;;;;;;-144.19;100.00;76051.72;5072681;28;20048;-87
2021/12/24 08:19:30;;;;;;;29.17;17.50;;;;;;;-144.19;100.00;76049.75;5090953;28;20087;-88
2021/12/24 08:21:58;;;;;;;31.00;19.05;;;;;;;-144.19;100.00;76055.66;5072195;28;20048;-87
2021/12/24 08:24:24;;;;;;;;;;;;;;;-144.19;100.00;76047.78;5075488;28;20051;-88
2021/12/24 08:26:51;;;;;;;25.92;15.85;;;;;;;-144.19;100.00;76063.53;5091071;28;19927;-88
2021/12/24 08:29:17;;;;;;;28.85;15.80;;;;;;;-144.19;100.00;76059.59;5086271;28;20053;-89
2021/12/24 08:31:44;;;;;;;30.98;17.52;;;;;;;-144.19;100.00;76051.72;5069743;28;20051;-89
2021/12/24 08:34:11;;;;;;;31.50;16.40;;;;;;;-144.19;100.00;76067.47;5082029;28;20055;-88
2021/12/24 08:36:38;;;;;;;25.52;15.05;;;;;;;-144.19;100.00;76047.78;5072558;28;20052;-87
2021/12/24 08:39:06;;;;;;;26.70;14.83;;;;;;;-144.19;100.00;76045.81;5091175;28;20058;-89
2021/12/24 08:41:33;;;;;;;29.35;16.02;;;;;;;-144.19;100.00;76055.66;5067530;28;20520;-88
2021/12/24 08:43:59;;;;;;;26.80;14.27;;;;;;;-144.19;100.00;76067.47;5073070;28;20048;-89
2021/12/24 08:46:26;;;;;;;32.47;17.33;;;;;;;-144.19;100.00;76059.59;5069631;28;20063;-88
2021/12/24 08:48:56;;;;;;;28.90;16.70;;;;;;;-144.19;100.00;76055.66;5084923;28;20079;-87
2021/12/24 08:51:22;;;;;;;30.45;16.83;;;;;;;-144.19;100.00;76067.47;5079934;28;20048;-89
2021/12/24 08:53:48;;;;;;;27.53;16.43;;;;;;;-144.19;100.00;76057.63;5088583;28;20052;-87
2021/12/24 08:56:15;;;;;;;27.47;15.03;;;;;;;-144.19;100.00;76079.28;5071654;28;20687;-86
2021/12/24 08:58:41;;;;;;;30.47;16.10;;;;;;;-144.19;100.00;76063.53;5097109;28;20285;-88
2021/12/24 09:01:08;;;;;;;28.43;15.00;;;;;;;-144.19;100.00;76075.34;5088527;28;20051;-87
2021/12/24 09:03:34;;;;;;;28.37;15.63;;;;;;;-144.19;100.00;76063.53;5084507;28;20044;-87
2021/12/24 09:06:01;;;;;;;28.53;16.00;;;;;;;-144.19;100.00;76077.31;5078861;28;20044;-86
2021/12/24 09:08:27;;;;;;;28.80;15.40;;;;;;;-144.19;100.00;76071.41;5055081;28;20298;-86
2021/12/24 09:10:54;;;;;;;25.08;15.00;;;;;;;-144.19;100.00;76067.47;5073203;28;20048;-86
2021/12/24 09:13:20;;;;;;;30.83;15.38;;;;;;;-144.19;100.00;76075.34;5089540;28;20058;-87
2021/12/24 09:15:47;;;;;;;29.40;15.80;;;;;;;-144.19;100.00;76083.22;5103846;28;20064;-87
2021/12/24 09:18:13;;;;;;;28.73;14.97;;;;;;;-144.19;100.00;76079.28;5086173;28;20290;-86
2021/12/24 09:20:43;;;;;;;25.85;15.77;;;;;;;-144.19;100.00;76087.16;5089900;28;20051;-87
2021/12/24 09:23:10;;;;;;;26.35;14.93;;;;;;;-144.19;100.00;76079.28;5082717;28;20055;-85
2021/12/24 09:25:37;;;;;;;24.02;13.52;;;;;;;-144.19;100.00;76093.06;5096826;28;20043;-85
2021/12/24 09:28:04;;;;;;;28.25;13.00;;;;;;;-144.19;100.00;76079.28;5087811;28;20048;-85
2021/12/24 09:30:32;;;;;;;24.05;13.43;;;;;;;-144.19;100.00;76091.09;5087310;28;20058;-85
2021/12/24 09:32:59;;;;;;;26.23;14.82;;;;;;;-144.19;100.00;76083.22;5097755;28;20051;-83
2021/12/24 09:35:26;;;;;;;26.25;15.73;;;;;;;-144.19;100.00;76075.34;5099416;28;20045;-85
2021/12/24 09:37:54;;;;;;;;;;;;;;;-144.19;100.00;76073.38;5075705;28;20055;-84
2021/12/24 09:40:21;;;;;;;24.00;13.20;;;;;;;-144.19;100.00;76083.22;5076032;28;20539;-84
2021/12/24 09:42:48;;;;;;;35.97;16.27;;;;;;;-144.19;100.00;76081.25;5056277;28;20083;-84
2021/12/24 09:45:17;;;;;;;27.48;15.23;;;;;;;-144.19;100.00;76083.22;5080867;28;20055;-83
2021/12/24 09:47:44;;;;;;;22.60;14.10;;;;;;;-144.19;100.00;76095.03;5093942;28;20130;-85
2021/12/24 09:50:14;;;;;;;27.92;15.82;;;;;;;-144.19;100.00;76087.16;5094673;28;20056;-84
2021/12/24 09:52:44;;;;;;;32.08;15.32;;;;;;;-144.19;100.00;76079.28;5095341;28;20058;-84
2021/12/24 09:55:15;;;;;;;28.50;15.30;;;;;;;-144.19;100.00;76081.25;5076123;28;20044;-84
2021/12/24 09:57:42;;;;;;;33.75;17.90;;;;;;;-144.19;100.00;76071.41;5094081;28;20044;-83
2021/12/24 10:00:11;;;;;;;27.67;17.50;;;;;;;-144.19;100.00;76073.38;5079281;28;20133;-85
2021/12/24 10:02:42;;;;;;;28.98;16.25;;;;;;;-144.19;100.00;76081.25;5077229;28;20048;-85
2021/12/24 10:05:42;;;;;;;35.75;16.83;;;;;;;-144.19;100.00;76081.25;5076542;28;20078;-85
2021/12/24 10:08:18;;;;;;;26.50;15.52;;;;;;;-144.19;100.00;76087.16;5060551;28;20048;-86
2021/12/24 10:10:47;;;;;;;31.02;15.80;;;;;;;-144.19;100.00;76083.22;5075648;28;20071;-86
2021/12/24 10:13:36;;;;;;;30.55;16.58;;;;;;;-144.19;100.00;76073.38;5067691;28;20050;-86
2021/12/24 10:16:13;;;;;;;29.13;17.15;;;;;;;-144.19;100.00;76077.31;5084927;28;20044;-85
2021/12/24 10:18:49;;;;;;;32.65;16.25;;;;;;;-144.19;100.00;76089.13;5100240;28;20044;-85
2021/12/24 10:21:18;;;;;;;28.45;17.35;;;;;;;-144.19;100.00;76098.97;5093249;28;20052;-84
2021/12/24 10:23:52;;;;;;;26.48;15.02;;;;;;;-144.19;100.00;76091.09;5079831;28;20422;-84
2021/12/24 10:26:27;;;;;;;30.02;15.32;;;;;;;-144.19;100.00;76108.78;5085026;28;20044;-84
2021/12/24 10:29:00;;;;;;;28.92;16.77;;;;;;;-144.19;100.00;76100.94;5086036;28;20048;-86
2021/12/24 10:31:40;;;;;;;31.17;16.85;;;;;;;-144.19;100.00;76087.16;5090519;28;20407;-86
2021/12/24 10:34:09;;;;;;;26.92;15.43;;;;;;;-144.19;100.00;76102.91;5059422;28;20048;-85
2021/12/24 10:36:56;;;;;;;24.85;15.00;;;;;;;-144.19;100.00;76095.03;5073994;28;20047;-85
2021/12/24 10:39:30;;;;;;;27.30;16.02;;;;;;;-144.19;100.00;76083.22;5098632;28;20469;-85
2021/12/24 10:41:58;;;;;;;26.92;14.80;;;;;;;-144.19;100.00;76083.22;5078946;28;20048;-86
2021/12/24 10:44:31;;;;;;;28.52;15.38;;;;;;;-144.19;100.00;76087.16;5088517;28;20497;-85
2021/12/24 10:47:08;;;;;;;33.90;15.93;;;;;;;-144.19;100.00;76075.34;5066125;28;20048;-85
2021/12/24 10:50:06;;;;;;;31.95;16.15;;;;;;;-144.19;100.00;76081.25;5110205;28;20058;-86
2021/12/24 10:52:46;;;;;;;27.83;15.00;;;;;;;-144.19;100.00;76069.44;5102051;28;20127;-86
2021/12/24 10:55:18;;;;;;;24.73;14.63;;;;;;;-144.19;100.00;76073.38;5060063;28;20974;-85
2021/12/24 10:57:46;;;;;;;25.45;14.27;;;;;;;-144.19;100.00;76083.22;5072698;28;20056;-85
2021/12/24 11:00:20;;;;;;;27.92;15.48;;;;;;;-144.19;100.00;76067.47;5074929;28;20048;-87
2021/12/24 11:03:00;;;;;;;26.00;13.35;;;;;;;-144.19;100.00;76067.47;5100040;28;20524;-85
2021/12/24 11:05:39;;;;;;;29.13;15.48;;;;;;;-144.19;100.00;76079.28;5100303;28;20050;-84
2021/12/24 11:08:12;;;;;;;26.55;14.23;;;;;;;-144.19;100.00;76059.59;5102248;28;20760;-86
2021/12/24 11:10:49;;;;;;;28.95;13.60;;;;;;;-144.19;100.00;76075.34;5076527;28;20064;-86
2021/12/24 11:13:20;;;;;;;29.98;14.50;;;;;;;-144.19;100.00;76061.56;5075223;28;20058;-86
2021/12/24 11:15:49;;;;;;;20.73;12.15;;;;;;;-144.19;100.00;76079.28;5089713;28;20059;-86
2021/12/24 11:18:22;;;;;;;25.35;13.13;;;;;;;-144.19;100.00;76073.38;5081010;28;20433;-86
2021/12/24 11:20:54;;;;;;;21.42;12.95;;;;;;;-144.19;100.00;76073.38;5097132;28;20055;-85
2021/12/24 11:23:23;;;;;;;24.25;13.07;;;;;;;-144.19;100.00;76075.34;5100974;28;20515;-86
2021/12/24 11:25:53;;;;;;;28.92;13.38;;;;;;;-144.19;100.00;76085.19;5112455;28;20048;-86
2021/12/24 11:28:20;;;;;;;29.58;13.68;;;;;;;-144.19;100.00;76083.22;5080142;28;20051;-86
2021/12/24 11:30:49;;;;;;;;;;;;;;;-144.19;100.00;76083.22;5092627;28;20676;-86
2021/12/24 11:33:19;;;;;;;26.40;13.68;;;;;;;-144.19;100.00;76081.25;5074653;28;19970;-88
2021/12/24 11:35:48;;;;;;;26.15;13.43;;;;;;;-144.19;100.00;76079.28;5091657;28;20066;-87
2021/12/24 11:38:17;;;;;;;21.73;12.43;;;;;;;-144.19;100.00;76085.19;5074736;28;20059;-86
2021/12/24 11:40:48;;;;;;;18.58;11.38;;;;;;;-144.19;100.00;76091.09;5092205;28;20466;-84
2021/12/24 11:43:17;;;;;;;22.55;13.00;;;;;;;-144.19;100.00;76075.34;5092668;28;20059;-84
2021/12/24 11:45:44;;;;;;;21.60;12.63;;;;;;;-144.19;100.00;76087.16;5073690;28;20068;-85
2021/12/24 11:48:11;;;;;;;23.75;12.50;;;;;;;-144.19;100.00;76085.19;5091369;28;20048;-85
2021/12/24 11:50:38;;;;;;;25.50;13.23;;;;;;;-144.19;100.00;76081.25;5091993;28;20048;-85
2021/12/24 11:53:09;;;;;;;23.85;12.90;;;;;;;-144.19;100.00;76079.28;5080142;28;20040;-85
2021/12/24 11:55:40;;;;;;;21.13;12.40;;;;;;;-144.19;100.00;76083.22;5080988;28;20050;-87
2021/12/24 11:58:14;;;;;;;20.13;12.10;;;;;;;-144.19;100.00;76079.28;5073645;28;20063;-86
2021/12/24 12:00:43;;;;;;;19.83;10.77;;;;;;;-144.19;100.00;76087.16;5072911;28;20054;-86
2021/12/24 12:03:28;;;;;;;22.15;11.15;;;;;;;-144.19;100.00;76071.41;5073696;28;20493;-85
2021/12/24 12:05:54;;;;;;;22.10;11.50;;;;;;;-144.19;100.00;76083.22;5090870;28;20040;-85
2021/12/24 12:08:27;;;;;;;25.05;12.15;;;;;;;-144.19;100.00;76083.22;5083081;28;20398;-85
2021/12/24 12:10:57;;;;;;;17.65;10.55;;;;;;;-144.19;100.00;76085.19;5102767;28;20120;-86
2021/12/24 12:13:38;;;;;;;17.95;9.43;;;;;;;-144.19;100.00;76081.25;5111357;28;20059;-86
2021/12/24 12:16:07;;;;;;;21.70;11.38;;;;;;;-144.19;100.00;76089.13;5091418;28;20535;-85
2021/12/24 12:18:49;;;;;;;18.27;9.55;;;;;;;-144.19;100.00;76085.19;5075649;28;20048;-88
2021/12/24 12:21:21;;;;;;;20.33;10.50;;;;;;;-144.19;100.00;76079.28;5073227;28;20079;-87
2021/12/24 12:26:36;;;;;;;15.23;8.45;;;;;;;-144.19;100.00;76089.13;5097705;28;20052;-87
2021/12/24 12:29:20;;;;;;;14.63;8.02;;;;;;;-144.19;100.00;76089.13;5081595;28;20052;-86
2021/12/24 12:32:08;;;;;;;12.77;7.47;;;;;;;-144.19;100.00;76087.16;5101896;28;20047;-87
2021/12/24 12:34:38;;;;;;;12.60;7.10;;;;;;;-144.19;100.00;76073.38;5087103;28;20062;-88
2021/12/24 12:37:12;;;;;;;14.80;7.40;;;;;;;-144.19;100.00;76069.44;5091393;28;20494;-86
2021/12/24 12:39:38;;;;;;;18.15;7.60;;;;;;;-144.19;100.00;76071.41;5084695;28;20065;-86
2021/12/24 12:42:05;;;;;;;14.05;6.82;;;;;;;-144.19;100.00;76069.44;5106344;28;20048;-85
2021/12/24 12:44:34;;;;;;;12.82;7.13;;;;;;;-144.19;100.00;76071.41;5111244;28;20055;-89
2021/12/24 12:47:18;;;;;;;14.52;7.35;;;;;;;-144.19;100.00;76081.25;5100520;28;20417;-85